Time;durP1;ratioP1;P1;durP2;ratioP2;P2;SDS_P1;SDS_P2;PMS_P1;PMS_P2;Temp;Humidity;BMP_temperature;BMP_pressure;BME280_temperature;BME280_humidity;BME280_pressure;Samples;Min_cycle;Max_cycle;Signal;HPM_P1;HPM_P2
2023/09/23 00:01:04;;;;;;;2.00;1.00;;;14.40;99.90;;;;;;5039458;28;20017;-69
2023/09/23 00:03:31;;;;;;;1.33;0.88;;;14.50;99.90;;;;;;5038273;28;20071;-69
2023/09/23 00:05:56;;;;;;;2.03;0.90;;;14.50;99.90;;;;;;5039232;28;20032;-69
2023/09/23 00:08:22;;;;;;;1.42;0.60;;;14.50;99.90;;;;;;5038112;28;20033;-69
2023/09/23 00:10:50;;;;;;;1.88;0.35;;;14.40;99.90;;;;;;5039194;28;20037;-69
2023/09/23 00:13:17;;;;;;;1.13;0.40;;;14.30;99.90;;;;;;5039007;28;20028;-69
2023/09/23 00:15:42;;;;;;;0.93;0.32;;;14.20;99.90;;;;;;5038658;28;20025;-69
2023/09/23 00:18:08;;;;;;;0.35;0.20;;;14.30;99.90;;;;;;5038230;28;20120;-69
2023/09/23 00:20:36;;;;;;;0.38;0.38;;;14.20;99.90;;;;;;5037838;28;20029;-69
2023/09/23 00:23:05;;;;;;;1.35;0.30;;;14.30;99.90;;;;;;5038703;28;20018;-69
2023/09/23 00:25:31;;;;;;;0.28;0.22;;;14.30;99.90;;;;;;5038731;28;20029;-69
2023/09/23 00:27:56;;;;;;;0.28;0.22;;;14.40;99.90;;;;;;5038422;28;20064;-69
2023/09/23 00:30:26;;;;;;;0.40;0.15;;;14.40;99.90;;;;;;5038435;28;20029;-69
2023/09/23 00:32:52;;;;;;;0.28;0.20;;;14.40;99.90;;;;;;5038467;28;20017;-69
2023/09/23 00:35:18;;;;;;;0.40;0.30;;;14.50;99.90;;;;;;5037553;28;20029;-69
2023/09/23 00:37:45;;;;;;;0.10;0.10;;;14.40;99.90;;;;;;5038281;28;20021;-69
2023/09/23 00:40:17;;;;;;;2.38;0.30;;;14.30;99.90;;;;;;5038924;28;20049;-69
2023/09/23 00:42:44;;;;;;;1.42;0.35;;;14.40;99.90;;;;;;5038414;28;20064;-69
2023/09/23 00:45:15;;;;;;;0.85;0.10;;;14.50;99.90;;;;;;5038428;28;20022;-69
2023/09/23 00:47:42;;;;;;;3.60;0.35;;;14.50;99.90;;;;;;5037501;28;20026;-69
2023/09/23 00:50:18;;;;;;;1.52;0.20;;;14.50;99.90;;;;;;5038070;28;20108;-69
2023/09/23 00:52:49;;;;;;;0.35;0.20;;;14.60;99.90;;;;;;5037349;28;20030;-69
2023/09/23 00:55:16;;;;;;;0.80;0.22;;;14.60;99.90;;;;;;5037525;28;20052;-69
2023/09/23 00:57:43;;;;;;;0.20;0.20;;;14.50;99.90;;;;;;5037099;28;20050;-69
2023/09/23 01:00:23;;;;;;;0.85;0.30;;;14.60;99.90;;;;;;5038400;28;20022;-69
2023/09/23 01:02:49;;;;;;;0.22;0.17;;;14.60;99.90;;;;;;5038204;28;20022;-69
2023/09/23 01:05:16;;;;;;;0.88;0.22;;;14.40;99.90;;;;;;5037348;28;20040;-69
2023/09/23 01:07:42;;;;;;;0.35;0.30;;;14.40;99.90;;;;;;5036871;28;20057;-69
2023/09/23 01:10:08;;;;;;;1.60;0.25;;;14.40;99.90;;;;;;5036721;28;20030;-68
2023/09/23 01:12:34;;;;;;;0.20;0.10;;;14.20;99.90;;;;;;5037691;28;20076;-68
2023/09/23 01:15:16;;;;;;;0.17;0.13;;;14.00;99.90;;;;;;5037877;28;20017;-69
2023/09/23 01:17:52;;;;;;;1.08;0.30;;;13.90;99.90;;;;;;5037913;28;20068;-69
2023/09/23 01:20:18;;;;;;;0.10;0.10;;;13.90;99.90;;;;;;5037178;28;20025;-69
2023/09/23 01:22:47;;;;;;;0.25;0.22;;;14.00;99.90;;;;;;5037567;28;20018;-69
2023/09/23 01:25:13;;;;;;;0.22;0.13;;;14.10;99.90;;;;;;5036735;28;20120;-69
2023/09/23 01:27:39;;;;;;;1.67;0.30;;;14.20;99.90;;;;;;5037718;28;20128;-69
2023/09/23 01:30:05;;;;;;;0.20;0.15;;;14.20;99.90;;;;;;5036810;28;20045;-69
2023/09/23 01:32:48;;;;;;;1.27;0.20;;;14.20;99.90;;;;;;5036495;28;20029;-69
2023/09/23 01:35:16;;;;;;;0.15;0.13;;;14.10;99.90;;;;;;5037582;28;20030;-68
2023/09/23 01:37:45;;;;;;;0.10;0.10;;;14.10;99.90;;;;;;5037344;28;20018;-69
2023/09/23 01:40:17;;;;;;;0.60;0.38;;;14.10;99.90;;;;;;5037083;28;20022;-69
2023/09/23 01:42:44;;;;;;;0.20;0.13;;;14.10;99.90;;;;;;5036892;28;20096;-68
2023/09/23 01:45:10;;;;;;;0.40;0.35;;;14.10;99.90;;;;;;5037267;28;20029;-69
2023/09/23 01:47:37;;;;;;;0.38;0.30;;;14.10;99.90;;;;;;5036288;28;20037;-68
2023/09/23 01:50:03;;;;;;;0.22;0.22;;;14.20;99.90;;;;;;5037234;28;20022;-69
2023/09/23 01:52:29;;;;;;;1.38;0.30;;;14.10;99.90;;;;;;5036697;28;20044;-69
2023/09/23 01:54:55;;;;;;;1.67;0.50;;;14.10;99.90;;;;;;5037330;28;20029;-68
2023/09/23 01:57:20;;;;;;;1.05;0.75;;;14.10;99.90;;;;;;5036161;28;20032;-69
2023/09/23 01:59:46;;;;;;;0.55;0.20;;;14.10;99.90;;;;;;5036915;28;20108;-69
2023/09/23 02:02:12;;;;;;;0.35;0.20;;;14.10;99.90;;;;;;5037503;28;20024;-69
2023/09/23 02:04:40;;;;;;;0.28;0.20;;;14.10;99.90;;;;;;5036992;28;20045;-69
2023/09/23 02:07:15;;;;;;;0.25;0.20;;;14.10;99.90;;;;;;5036155;28;20112;-69
2023/09/23 02:09:41;;;;;;;7.05;0.40;;;14.20;99.90;;;;;;5036315;28;20043;-69
2023/09/23 02:12:06;;;;;;;0.98;0.22;;;14.10;99.90;;;;;;5036911;28;20029;-69
2023/09/23 02:14:32;;;;;;;0.75;0.43;;;14.10;99.90;;;;;;5036831;28;20041;-69
2023/09/23 02:16:57;;;;;;;0.47;0.40;;;14.10;99.90;;;;;;5036790;28;20037;-69
2023/09/23 02:19:24;;;;;;;0.50;0.25;;;14.00;99.90;;;;;;5036326;28;20040;-69
2023/09/23 02:21:51;;;;;;;0.30;0.20;;;14.00;99.90;;;;;;5036899;28;20041;-69
2023/09/23 02:24:18;;;;;;;0.60;0.30;;;14.00;99.90;;;;;;5036737;28;20021;-69
2023/09/23 02:26:45;;;;;;;0.77;0.30;;;14.00;99.90;;;;;;5037166;28;20021;-68
2023/09/23 02:29:14;;;;;;;2.70;0.40;;;14.10;99.90;;;;;;5037049;28;20021;-69
2023/09/23 02:31:46;;;;;;;0.68;0.30;;;14.10;99.90;;;;;;5036973;28;20025;-68
2023/09/23 02:34:14;;;;;;;2.35;0.30;;;14.10;99.90;;;;;;5037102;28;20024;-69
2023/09/23 02:36:41;;;;;;;0.50;0.32;;;14.20;99.90;;;;;;5036578;28;20075;-69
2023/09/23 02:39:06;;;;;;;0.60;0.22;;;14.00;99.90;;;;;;5036686;28;20044;-69
2023/09/23 02:41:33;;;;;;;0.40;0.40;;;14.00;99.90;;;;;;5035780;28;20026;-69
2023/09/23 02:43:58;;;;;;;0.17;0.17;;;14.00;99.90;;;;;;5037226;28;20018;-68
2023/09/23 02:46:24;;;;;;;0.40;0.20;;;14.00;99.90;;;;;;5036532;28;20028;-68
2023/09/23 02:48:49;;;;;;;0.47;0.28;;;13.80;99.90;;;;;;5036659;28;20040;-68
2023/09/23 02:51:15;;;;;;;1.10;0.40;;;13.60;99.90;;;;;;5036639;28;20021;-68
2023/09/23 02:53:40;;;;;;;1.75;0.30;;;13.60;99.90;;;;;;5036984;28;20063;-68
2023/09/23 02:56:07;;;;;;;0.20;0.20;;;13.60;99.90;;;;;;5039692;28;20033;-69
2023/09/23 02:58:33;;;;;;;0.80;0.40;;;13.60;99.90;;;;;;5039290;28;20025;-69
2023/09/23 03:01:01;;;;;;;0.90;0.20;;;13.70;99.90;;;;;;5039368;28;20089;-69
2023/09/23 03:03:27;;;;;;;0.70;0.20;;;13.60;99.90;;;;;;5039707;28;20048;-69
2023/09/23 03:05:55;;;;;;;0.68;0.40;;;13.70;99.90;;;;;;5039294;28;20029;-69
2023/09/23 03:08:22;;;;;;;1.85;0.40;;;13.60;99.90;;;;;;5040213;28;20117;-68
2023/09/23 03:10:49;;;;;;;1.02;0.43;;;13.70;99.90;;;;;;5040517;28;20025;-68
2023/09/23 03:13:17;;;;;;;2.25;0.50;;;13.60;99.90;;;;;;5039951;28;20021;-70
2023/09/23 03:15:48;;;;;;;1.35;0.32;;;13.60;99.90;;;;;;5039090;28;20033;-69
2023/09/23 03:18:27;;;;;;;0.53;0.23;;;13.60;99.90;;;;;;5039372;28;20022;-69
2023/09/23 03:20:57;;;;;;;1.00;0.38;;;13.60;99.90;;;;;;5039083;28;20279;-69
2023/09/23 03:23:23;;;;;;;2.50;0.40;;;13.60;99.90;;;;;;5040286;28;20041;-69
2023/09/23 03:25:51;;;;;;;0.63;0.35;;;13.60;99.90;;;;;;5039826;28;20025;-69
2023/09/23 03:28:17;;;;;;;0.43;0.38;;;13.50;99.90;;;;;;5039802;28;20051;-69
2023/09/23 03:30:47;;;;;;;0.50;0.47;;;13.60;99.90;;;;;;5039830;28;20059;-69
2023/09/23 03:33:13;;;;;;;1.13;0.80;;;13.60;99.90;;;;;;5040092;28;20025;-69
2023/09/23 03:35:39;;;;;;;0.85;0.30;;;13.60;99.90;;;;;;5039576;28;20032;-68
2023/09/23 03:38:04;;;;;;;1.10;0.50;;;13.50;99.90;;;;;;5038584;28;20021;-69
2023/09/23 03:40:31;;;;;;;2.85;0.40;;;13.60;99.90;;;;;;5039497;28;20026;-69
2023/09/23 03:42:58;;;;;;;0.60;0.50;;;13.60;99.90;;;;;;5038821;28;20040;-69
2023/09/23 03:45:23;;;;;;;1.35;0.40;;;13.50;99.90;;;;;;5039759;28;20089;-69
2023/09/23 03:47:49;;;;;;;0.57;0.57;;;13.50;99.90;;;;;;5038400;28;20045;-69
2023/09/23 03:50:15;;;;;;;0.85;0.40;;;13.50;99.90;;;;;;5039871;28;20079;-68
2023/09/23 03:52:42;;;;;;;0.60;0.40;;;13.50;99.90;;;;;;5039325;28;20033;-69
2023/09/23 03:55:09;;;;;;;0.30;0.30;;;13.50;99.90;;;;;;5039623;28;20071;-69
2023/09/23 03:57:35;;;;;;;3.20;0.50;;;13.40;99.90;;;;;;5038381;28;20022;-68
2023/09/23 04:00:01;;;;;;;1.10;0.52;;;13.30;99.90;;;;;;5038117;28;20033;-68
2023/09/23 04:02:26;;;;;;;1.52;0.30;;;13.20;99.90;;;;;;5039171;28;20029;-68
2023/09/23 04:04:53;;;;;;;2.45;0.30;;;13.10;99.90;;;;;;5037776;28;20037;-68
2023/09/23 04:07:20;;;;;;;0.70;0.40;;;13.00;99.90;;;;;;5039312;28;20025;-69
2023/09/23 04:09:46;;;;;;;2.28;0.57;;;12.90;99.90;;;;;;5038968;28;20055;-69
2023/09/23 04:12:12;;;;;;;3.83;0.40;;;12.80;99.90;;;;;;5037962;28;20022;-68
2023/09/23 04:14:37;;;;;;;2.95;0.60;;;12.80;99.90;;;;;;5038270;28;20040;-68
2023/09/23 04:17:03;;;;;;;0.50;0.35;;;12.70;99.90;;;;;;5038260;28;20029;-69
2023/09/23 04:19:29;;;;;;;0.70;0.47;;;12.70;99.90;;;;;;5038553;28;20026;-68
2023/09/23 04:21:55;;;;;;;1.50;0.50;;;12.80;99.90;;;;;;5038871;28;20021;-69
2023/09/23 04:24:21;;;;;;;1.60;0.52;;;12.90;99.90;;;;;;5039254;28;20025;-68
2023/09/23 04:26:47;;;;;;;3.63;0.52;;;13.10;99.90;;;;;;5037584;28;20028;-68
2023/09/23 04:29:14;;;;;;;0.50;0.40;;;13.20;99.90;;;;;;5037636;28;20027;-68
2023/09/23 04:31:39;;;;;;;1.13;0.40;;;13.30;99.90;;;;;;5038579;28;20077;-69
2023/09/23 04:34:05;;;;;;;0.95;0.45;;;13.30;99.90;;;;;;5039071;28;20049;-68
2023/09/23 04:36:31;;;;;;;1.88;0.50;;;13.40;99.90;;;;;;5037547;28;20082;-68
2023/09/23 04:38:57;;;;;;;2.95;0.60;;;13.30;99.90;;;;;;5038530;28;20040;-69
2023/09/23 04:41:22;;;;;;;2.08;0.88;;;13.30;99.90;;;;;;5038396;28;20025;-69
2023/09/23 04:43:48;;;;;;;1.33;0.60;;;13.30;99.90;;;;;;5038559;28;20111;-69
2023/09/23 04:46:17;;;;;;;3.60;0.45;;;13.30;99.90;;;;;;5038328;28;20025;-68
2023/09/23 04:48:43;;;;;;;3.40;0.50;;;13.10;99.90;;;;;;5038460;28;20021;-69
2023/09/23 04:51:08;;;;;;;2.83;0.60;;;13.10;99.90;;;;;;5038077;28;20017;-68
2023/09/23 04:53:35;;;;;;;0.82;0.40;;;13.10;99.90;;;;;;5037272;28;20052;-69
2023/09/23 04:56:06;;;;;;;1.30;0.60;;;13.00;99.90;;;;;;5037630;28;20029;-69
2023/09/23 04:58:32;;;;;;;1.48;0.50;;;13.00;99.90;;;;;;5038028;28;20032;-68
2023/09/23 05:00:59;;;;;;;0.82;0.68;;;13.00;99.90;;;;;;5037423;28;20033;-69
2023/09/23 05:03:24;;;;;;;3.20;0.60;;;12.90;99.90;;;;;;5038038;28;20064;-68
2023/09/23 05:05:50;;;;;;;0.82;0.50;;;12.90;99.90;;;;;;5037112;28;20021;-68
2023/09/23 05:08:16;;;;;;;1.13;0.50;;;12.70;99.90;;;;;;5036857;28;20040;-68
2023/09/23 05:10:41;;;;;;;1.02;0.65;;;12.60;99.90;;;;;;5037914;28;20029;-68
2023/09/23 05:13:09;;;;;;;2.05;0.80;;;12.60;99.90;;;;;;5036917;28;20021;-68
2023/09/23 05:15:35;;;;;;;0.85;0.40;;;12.50;99.90;;;;;;5037197;28;20047;-68
2023/09/23 05:18:00;;;;;;;2.30;0.60;;;12.40;99.90;;;;;;5036984;28;20021;-68
2023/09/23 05:20:26;;;;;;;3.22;0.77;;;12.40;99.90;;;;;;5037550;28;20025;-68
2023/09/23 05:22:55;;;;;;;2.72;0.55;;;12.30;99.90;;;;;;5037680;28;20111;-68
2023/09/23 05:25:24;;;;;;;3.05;1.00;;;12.30;99.90;;;;;;5037530;28;20032;-69
2023/09/23 05:27:50;;;;;;;0.90;0.50;;;12.30;99.90;;;;;;5037453;28;20109;-68
2023/09/23 05:30:15;;;;;;;2.67;0.60;;;12.30;99.90;;;;;;5036530;28;20057;-68
2023/09/23 05:32:42;;;;;;;1.23;0.50;;;12.30;99.90;;;;;;5036587;28;20080;-68
2023/09/23 05:35:11;;;;;;;4.97;0.50;;;12.30;99.90;;;;;;5037608;28;20075;-68
2023/09/23 05:37:37;;;;;;;1.75;0.70;;;12.40;99.90;;;;;;5036780;28;20028;-68
2023/09/23 05:42:59;;;;;;;2.28;0.60;;;12.70;99.90;;;;;;4996411;28;20085;-68
2023/09/23 05:45:25;;;;;;;9.50;0.95;;;12.90;99.90;;;;;;4996443;28;20088;-69
2023/09/23 05:47:53;;;;;;;2.55;0.70;;;13.00;99.90;;;;;;4996507;28;20034;-69
2023/09/23 05:50:20;;;;;;;4.47;0.60;;;13.10;99.90;;;;;;4996127;28;20061;-68
2023/09/23 05:52:46;;;;;;;2.70;0.60;;;13.30;99.90;;;;;;4996252;28;20097;-68
2023/09/23 05:55:13;;;;;;;2.20;0.60;;;13.40;99.90;;;;;;4996310;28;20046;-69
2023/09/23 05:57:40;;;;;;;4.55;0.50;;;13.50;99.90;;;;;;4996125;28;20023;-68
2023/09/23 06:00:08;;;;;;;3.80;1.35;;;13.50;99.90;;;;;;4996241;28;20038;-69
2023/09/23 06:02:34;;;;;;;3.28;0.65;;;13.50;99.90;;;;;;4996109;28;20026;-68
2023/09/23 06:05:01;;;;;;;2.83;0.70;;;13.50;99.90;;;;;;4996022;28;20030;-68
2023/09/23 06:07:27;;;;;;;6.70;0.70;;;13.40;99.90;;;;;;4996206;28;20042;-69
2023/09/23 06:09:53;;;;;;;2.28;0.50;;;13.10;99.90;;;;;;4995943;28;20045;-68
2023/09/23 06:12:18;;;;;;;1.40;0.57;;;13.00;99.90;;;;;;4996035;28;20042;-68
2023/09/23 06:14:44;;;;;;;0.60;0.57;;;13.00;99.90;;;;;;4995960;28;20035;-68
2023/09/23 06:17:09;;;;;;;2.58;1.00;;;13.00;99.90;;;;;;4995852;28;20026;-68
2023/09/23 06:19:35;;;;;;;2.95;0.70;;;13.10;99.90;;;;;;5021004;28;20120;-68
2023/09/23 06:22:00;;;;;;;1.92;0.70;;;13.10;99.90;;;;;;5037167;28;20021;-69
2023/09/23 06:24:26;;;;;;;2.25;0.82;;;13.00;99.90;;;;;;5037257;28;20032;-68
2023/09/23 06:26:52;;;;;;;2.47;0.65;;;13.10;99.90;;;;;;5036781;28;20021;-68
2023/09/23 06:29:17;;;;;;;5.18;1.40;;;13.10;99.90;;;;;;5040643;28;20108;-68
2023/09/23 06:31:43;;;;;;;2.92;1.27;;;13.20;99.90;;;;;;5041121;28;20107;-68
2023/09/23 06:34:08;;;;;;;1.58;1.05;;;13.20;99.90;;;;;;5040746;28;20018;-68
2023/09/23 06:36:34;;;;;;;2.53;1.00;;;13.30;99.90;;;;;;5040537;28;20061;-68
2023/09/23 06:39:00;;;;;;;5.18;0.90;;;13.40;99.90;;;;;;5039690;28;20025;-69
2023/09/23 06:41:25;;;;;;;3.13;0.77;;;13.50;99.90;;;;;;5040643;28;20053;-69
2023/09/23 06:43:51;;;;;;;3.17;0.80;;;13.60;99.90;;;;;;5040785;28;20052;-68
2023/09/23 06:46:17;;;;;;;1.08;0.77;;;13.70;99.90;;;;;;5039499;28;20033;-68
2023/09/23 06:48:43;;;;;;;4.47;1.63;;;13.80;99.90;;;;;;5040574;28;20045;-68
2023/09/23 06:51:10;;;;;;;2.10;0.70;;;13.80;99.90;;;;;;5040617;28;20047;-68
2023/09/23 06:53:35;;;;;;;1.98;0.93;;;13.90;99.90;;;;;;5039869;28;20017;-68
2023/09/23 06:56:01;;;;;;;4.78;1.20;;;14.00;99.90;;;;;;5040495;28;20091;-68
2023/09/23 06:58:26;;;;;;;1.52;0.70;;;13.90;99.90;;;;;;5039674;28;20030;-68
2023/09/23 07:00:53;;;;;;;4.63;0.80;;;13.90;99.90;;;;;;5040627;28;20029;-68
2023/09/23 07:03:19;;;;;;;2.53;0.82;;;13.90;99.90;;;;;;5040412;28;20021;-68
2023/09/23 07:05:45;;;;;;;0.90;0.82;;;13.90;99.90;;;;;;5040012;28;20021;-68
2023/09/23 07:08:11;;;;;;;1.15;0.57;;;13.90;99.90;;;;;;5040554;28;20032;-68
2023/09/23 07:10:38;;;;;;;2.08;0.70;;;13.80;99.90;;;;;;5040102;28;20025;-68
2023/09/23 07:13:05;;;;;;;2.30;0.75;;;13.80;99.90;;;;;;5040270;28;20025;-68
2023/09/23 07:15:35;;;;;;;3.40;0.77;;;13.80;99.90;;;;;;5039907;28;20057;-68
2023/09/23 07:18:00;;;;;;;0.63;0.63;;;13.80;99.90;;;;;;5038999;28;20025;-68
2023/09/23 07:20:27;;;;;;;3.45;0.65;;;13.90;99.90;;;;;;5039969;28;20034;-68
2023/09/23 07:22:52;;;;;;;1.30;0.50;;;14.00;99.90;;;;;;5039268;28;20103;-68
2023/09/23 07:25:18;;;;;;;1.50;0.70;;;14.10;99.90;;;;;;5038858;28;20049;-68
2023/09/23 07:27:43;;;;;;;7.05;1.08;;;14.10;99.90;;;;;;5039108;28;20021;-68
2023/09/23 07:30:09;;;;;;;4.85;1.15;;;14.10;99.90;;;;;;5039702;28;20026;-68
2023/09/23 07:32:35;;;;;;;4.68;1.60;;;14.20;99.90;;;;;;5038747;28;20022;-69
2023/09/23 07:35:00;;;;;;;4.40;1.77;;;14.20;99.90;;;;;;5039041;28;20120;-68
2023/09/23 07:37:26;;;;;;;3.40;1.70;;;14.30;99.90;;;;;;5038696;28;20030;-68
2023/09/23 07:39:51;;;;;;;4.80;0.73;;;14.30;99.90;;;;;;5038942;28;20064;-68
2023/09/23 07:42:17;;;;;;;1.02;0.40;;;14.40;99.90;;;;;;5039502;28;20052;-68
2023/09/23 07:44:42;;;;;;;4.03;0.63;;;14.40;99.90;;;;;;5039453;28;20040;-69
2023/09/23 07:47:08;;;;;;;1.83;0.95;;;14.40;99.90;;;;;;5038306;28;20055;-69
2023/09/23 07:49:35;;;;;;;1.40;0.45;;;14.40;99.90;;;;;;5038372;28;20143;-68
2023/09/23 07:52:00;;;;;;;3.28;2.03;;;14.40;99.90;;;;;;5038821;28;20041;-69
2023/09/23 07:54:26;;;;;;;1.30;0.50;;;14.40;99.90;;;;;;5038386;28;20233;-68
2023/09/23 07:56:51;;;;;;;0.80;0.77;;;14.50;99.90;;;;;;5039512;28;20029;-68
2023/09/23 07:59:17;;;;;;;1.10;0.80;;;14.60;99.90;;;;;;5038533;28;20033;-69
2023/09/23 08:01:42;;;;;;;2.90;1.20;;;14.70;99.90;;;;;;5038115;28;20026;-69
2023/09/23 08:04:08;;;;;;;5.03;2.28;;;14.80;99.90;;;;;;5039553;28;20025;-68
2023/09/23 08:06:33;;;;;;;1.02;0.57;;;14.80;99.90;;;;;;5037947;28;20029;-68
2023/09/23 08:08:59;;;;;;;9.60;1.17;;;14.80;99.90;;;;;;5038125;28;20053;-69
2023/09/23 08:11:26;;;;;;;0.60;0.45;;;14.90;99.90;;;;;;5038057;28;20117;-68
2023/09/23 08:13:52;;;;;;;3.05;1.33;;;14.80;99.90;;;;;;5038905;28;20013;-68
2023/09/23 08:16:17;;;;;;;3.42;0.82;;;14.80;99.90;;;;;;5039025;28;20033;-68
2023/09/23 08:18:43;;;;;;;2.10;1.00;;;14.80;99.90;;;;;;5038710;28;20029;-68
2023/09/23 08:21:08;;;;;;;3.47;0.80;;;14.90;99.90;;;;;;5039043;28;20030;-68
2023/09/23 08:23:34;;;;;;;3.67;1.15;;;15.00;99.90;;;;;;5037863;28;20032;-68
2023/09/23 08:25:59;;;;;;;3.15;1.15;;;15.10;99.90;;;;;;5038636;28;20029;-68
2023/09/23 08:28:25;;;;;;;4.25;1.05;;;15.10;99.90;;;;;;5037803;28;20022;-68
2023/09/23 08:30:52;;;;;;;3.20;0.82;;;15.10;99.90;;;;;;5038863;28;20021;-68
2023/09/23 08:33:17;;;;;;;3.80;0.80;;;15.00;99.90;;;;;;5037598;28;20026;-68
2023/09/23 08:35:47;;;;;;;2.45;0.63;;;14.90;99.90;;;;;;5038306;28;20036;-68
2023/09/23 08:38:13;;;;;;;1.80;0.80;;;15.00;99.90;;;;;;5038008;28;20028;-68
2023/09/23 08:40:39;;;;;;;2.63;0.80;;;15.00;99.90;;;;;;5039000;28;20100;-68
2023/09/23 08:43:05;;;;;;;2.47;1.40;;;15.10;99.90;;;;;;5037359;28;20053;-68
2023/09/23 08:45:31;;;;;;;3.55;1.38;;;15.20;99.90;;;;;;5038192;28;20115;-68
2023/09/23 08:47:58;;;;;;;3.45;1.05;;;15.30;99.90;;;;;;5038153;28;20057;-68
2023/09/23 08:50:25;;;;;;;3.70;1.10;;;15.30;99.90;;;;;;5038403;28;20028;-69
2023/09/23 08:52:51;;;;;;;2.85;1.27;;;15.50;99.90;;;;;;5038318;28;20026;-69
2023/09/23 08:55:18;;;;;;;1.58;0.90;;;15.50;99.90;;;;;;5038013;28;20097;-68
2023/09/23 08:57:44;;;;;;;1.30;0.43;;;15.60;99.90;;;;;;5037165;28;20112;-68
2023/09/23 09:00:13;;;;;;;1.88;0.70;;;15.60;99.90;;;;;;5038018;28;20069;-68
2023/09/23 09:02:38;;;;;;;7.63;0.75;;;15.70;99.90;;;;;;5037951;28;20022;-68
2023/09/23 09:05:04;;;;;;;3.45;0.88;;;15.70;99.90;;;;;;5037721;28;20029;-68
2023/09/23 09:07:38;;;;;;;2.72;0.80;;;15.70;99.90;;;;;;5037000;28;20148;-68
2023/09/23 09:10:05;;;;;;;3.60;0.70;;;15.70;99.90;;;;;;5037466;28;20032;-68
2023/09/23 09:12:32;;;;;;;8.43;0.90;;;15.70;99.90;;;;;;5036943;28;20078;-68
2023/09/23 09:14:57;;;;;;;2.13;0.85;;;15.70;99.90;;;;;;5037829;28;20029;-68
2023/09/23 09:17:23;;;;;;;2.15;0.75;;;15.70;99.90;;;;;;5037780;28;20037;-68
2023/09/23 09:19:49;;;;;;;1.27;0.73;;;15.70;99.90;;;;;;5037853;28;20029;-68
2023/09/23 09:22:16;;;;;;;3.55;0.80;;;15.80;99.90;;;;;;5036681;28;20025;-68
2023/09/23 09:24:43;;;;;;;2.38;0.75;;;15.90;99.90;;;;;;5037606;28;20036;-68
2023/09/23 09:27:12;;;;;;;3.65;0.70;;;15.90;99.90;;;;;;5037578;28;20036;-68
2023/09/23 09:29:40;;;;;;;1.42;0.68;;;16.00;99.90;;;;;;5037625;28;20028;-68
2023/09/23 09:32:08;;;;;;;1.75;0.70;;;16.00;99.90;;;;;;5036541;28;20045;-68
2023/09/23 09:34:45;;;;;;;1.80;0.50;;;16.00;99.90;;;;;;5036516;28;20021;-68
2023/09/23 09:37:13;;;;;;;3.40;0.70;;;16.00;99.90;;;;;;5037600;28;20105;-68
2023/09/23 09:39:49;;;;;;;3.38;0.95;;;16.00;99.90;;;;;;5036375;28;20078;-68
2023/09/23 09:42:20;;;;;;;1.73;0.80;;;16.10;99.90;;;;;;5036398;28;20130;-68
2023/09/23 09:44:47;;;;;;;3.13;0.57;;;16.20;99.90;;;;;;5037516;28;20025;-69
2023/09/23 09:47:16;;;;;;;7.25;0.70;;;16.20;99.90;;;;;;5037348;28;20025;-69
2023/09/23 09:49:44;;;;;;;0.50;0.43;;;16.30;99.90;;;;;;5037243;28;20100;-68
2023/09/23 09:52:11;;;;;;;1.77;0.70;;;16.40;99.90;;;;;;5037058;28;20026;-69
2023/09/23 09:54:37;;;;;;;1.88;0.70;;;16.50;99.90;;;;;;5037434;28;20028;-68
2023/09/23 09:57:07;;;;;;;1.50;0.50;;;16.50;99.90;;;;;;5037148;28;20026;-68
2023/09/23 09:59:33;;;;;;;2.10;0.47;;;16.60;99.90;;;;;;5036203;28;20075;-68
2023/09/23 10:02:00;;;;;;;1.27;0.68;;;16.50;99.90;;;;;;5036935;28;20029;-68
2023/09/23 10:04:32;;;;;;;1.20;0.50;;;16.60;99.90;;;;;;5036086;28;20049;-68
2023/09/23 10:06:58;;;;;;;0.88;0.60;;;16.70;99.90;;;;;;5036945;28;20032;-68
2023/09/23 10:09:31;;;;;;;2.28;0.50;;;16.80;99.90;;;;;;5036453;28;20118;-68
2023/09/23 10:11:58;;;;;;;1.38;0.60;;;16.90;99.90;;;;;;5036980;28;20021;-68
2023/09/23 10:14:24;;;;;;;1.13;0.60;;;17.00;99.90;;;;;;5037088;28;20120;-69
2023/09/23 10:16:51;;;;;;;1.52;0.65;;;17.30;99.90;;;;;;5036964;28;20052;-69
2023/09/23 10:19:19;;;;;;;2.42;0.70;;;17.40;99.90;;;;;;5035935;28;20061;-69
2023/09/23 10:21:45;;;;;;;1.05;0.50;;;17.90;99.90;;;;;;5036058;28;20057;-69
2023/09/23 10:24:18;;;;;;;2.03;0.47;;;18.30;99.90;;;;;;5036459;28;20033;-69
2023/09/23 10:26:44;;;;;;;1.83;0.70;;;18.80;99.90;;;;;;5035975;28;20055;-69
2023/09/23 10:29:10;;;;;;;2.97;0.88;;;18.80;99.90;;;;;;5037152;28;20100;-69
2023/09/23 10:31:37;;;;;;;1.75;1.00;;;18.60;99.90;;;;;;5036887;28;20024;-69
2023/09/23 10:34:06;;;;;;;2.30;0.60;;;18.40;99.90;;;;;;5036746;28;20024;-68
2023/09/23 10:36:33;;;;;;;3.30;1.08;;;18.10;99.90;;;;;;5036833;28;20033;-69
2023/09/23 10:38:59;;;;;;;3.65;1.10;;;17.80;99.90;;;;;;5035700;28;20025;-68
2023/09/23 10:41:35;;;;;;;5.53;0.90;;;17.60;99.90;;;;;;5035859;28;20026;-68
2023/09/23 10:44:04;;;;;;;2.33;1.20;;;17.50;99.90;;;;;;5036135;28;20030;-68
2023/09/23 10:46:31;;;;;;;2.05;1.10;;;17.40;99.90;;;;;;5036577;28;20067;-69
2023/09/23 10:48:57;;;;;;;3.22;0.80;;;17.30;99.90;;;;;;5036761;28;20018;-69
2023/09/23 10:51:22;;;;;;;3.53;0.77;;;17.30;99.90;;;;;;5035894;28;20036;-68
2023/09/23 10:53:49;;;;;;;8.10;1.27;;;17.10;99.90;;;;;;5036556;28;20022;-69
2023/09/23 10:56:15;;;;;;;4.50;0.68;;;17.20;99.90;;;;;;5036566;28;20105;-69
2023/09/23 10:58:41;;;;;;;1.08;0.38;;;17.50;99.90;;;;;;5036540;28;20044;-68
2023/09/23 11:01:07;;;;;;;4.13;0.93;;;17.70;99.90;;;;;;5035773;28;20041;-69
2023/09/23 11:03:39;;;;;;;1.13;0.77;;;17.60;99.90;;;;;;5036564;28;20108;-68
2023/09/23 11:06:06;;;;;;;3.63;0.82;;;17.60;99.90;;;;;;5035459;28;20053;-68
2023/09/23 11:08:32;;;;;;;4.75;1.58;;;17.40;99.90;;;;;;5036985;28;20026;-68
2023/09/23 11:10:58;;;;;;;3.75;1.60;;;17.40;99.90;;;;;;5035446;28;20033;-68
2023/09/23 11:13:25;;;;;;;4.97;1.23;;;17.30;99.90;;;;;;5035719;28;20017;-68
2023/09/23 11:15:51;;;;;;;2.47;0.73;;;17.30;99.90;;;;;;5038479;28;20029;-69
2023/09/23 11:18:17;;;;;;;7.47;2.33;;;17.30;99.90;;;;;;5039962;28;20057;-68
2023/09/23 11:20:45;;;;;;;2.63;1.40;;;17.40;99.90;;;;;;5039861;28;20021;-68
2023/09/23 11:23:12;;;;;;;4.15;1.10;;;17.40;99.90;;;;;;5040020;28;20071;-69
2023/09/23 11:25:41;;;;;;;4.57;1.88;;;17.40;99.90;;;;;;5039803;28;20064;-68
2023/09/23 11:28:28;;;;;;;3.38;1.20;;;17.50;99.90;;;;;;5038853;28;20021;-69
2023/09/23 11:30:55;;;;;;;2.72;1.80;;;17.40;99.90;;;;;;5039206;28;20079;-68
2023/09/23 11:33:21;;;;;;;4.25;1.48;;;17.80;99.90;;;;;;5039718;28;20025;-69
2023/09/23 11:35:47;;;;;;;3.53;1.27;;;17.80;99.90;;;;;;5040087;28;20022;-68
2023/09/23 11:38:13;;;;;;;1.65;0.82;;;17.90;99.90;;;;;;5038609;28;20025;-68
2023/09/23 11:40:40;;;;;;;6.85;3.08;;;17.70;99.90;;;;;;5039709;28;20018;-68
2023/09/23 11:43:06;;;;;;;4.20;1.65;;;17.60;99.90;;;;;;5039740;28;20032;-68
2023/09/23 11:45:34;;;;;;;2.50;1.00;;;17.50;99.90;;;;;;5039420;28;20026;-69
2023/09/23 11:48:03;;;;;;;6.40;2.10;;;17.60;99.90;;;;;;5038822;28;20089;-69
2023/09/23 11:50:28;;;;;;;4.05;1.90;;;17.70;99.90;;;;;;5038447;28;20025;-69
2023/09/23 11:52:54;;;;;;;2.95;1.30;;;17.80;99.90;;;;;;5039310;28;20029;-69
2023/09/23 11:55:22;;;;;;;2.72;1.00;;;17.70;99.90;;;;;;5038550;28;20056;-69
2023/09/23 11:57:48;;;;;;;2.28;0.85;;;17.70;99.90;;;;;;5039323;28;20108;-69
2023/09/23 12:00:15;;;;;;;1.50;0.70;;;18.00;99.90;;;;;;5039625;28;20026;-69
2023/09/23 12:02:41;;;;;;;5.20;1.63;;;18.20;99.90;;;;;;5039284;28;20083;-68
2023/09/23 12:05:08;;;;;;;4.65;1.52;;;18.40;99.90;;;;;;5039666;28;20021;-69
2023/09/23 12:07:34;;;;;;;5.43;1.20;;;19.00;99.90;;;;;;5039116;28;20072;-68
2023/09/23 12:10:07;;;;;;;3.83;1.25;;;19.30;99.90;;;;;;5038399;28;20083;-68
2023/09/23 12:12:33;;;;;;;3.00;2.03;;;19.00;99.90;;;;;;5038002;28;20021;-68
2023/09/23 12:14:58;;;;;;;6.88;2.47;;;18.70;99.90;;;;;;5039009;28;20025;-68
2023/09/23 12:17:24;;;;;;;4.30;2.00;;;18.60;99.90;;;;;;5038041;28;20021;-69
2023/09/23 12:19:50;;;;;;;5.68;1.65;;;19.30;99.90;;;;;;5038917;28;20021;-69
2023/09/23 12:22:15;;;;;;;2.72;1.40;;;20.50;99.90;;;;;;5038242;28;20033;-69
2023/09/23 12:24:45;;;;;;;1.58;1.10;;;21.60;99.90;;;;;;5037644;28;20032;-70
2023/09/23 12:27:11;;;;;;;7.60;1.20;;;22.40;99.90;;;;;;5038623;28;20021;-69
2023/09/23 12:29:37;;;;;;;3.22;1.20;;;22.90;99.90;;;;;;5038795;28;20032;-69
2023/09/23 12:32:04;;;;;;;5.55;1.80;;;22.90;99.90;;;;;;5038823;28;20021;-69
2023/09/23 12:34:30;;;;;;;3.00;1.20;;;22.40;99.90;;;;;;5038529;28;20021;-69
2023/09/23 12:36:56;;;;;;;4.72;1.35;;;21.60;99.90;;;;;;5039236;28;20030;-69
2023/09/23 12:39:22;;;;;;;4.57;1.20;;;21.10;99.90;;;;;;5038337;28;20021;-69
2023/09/23 12:41:48;;;;;;;3.17;1.10;;;20.70;99.90;;;;;;5038528;28;20025;-69
2023/09/23 12:44:14;;;;;;;2.13;1.17;;;21.00;99.90;;;;;;5037772;28;20041;-69
2023/09/23 12:46:40;;;;;;;2.00;1.10;;;22.00;99.90;;;;;;5038556;28;20060;-69
2023/09/23 12:49:05;;;;;;;2.55;1.00;;;22.50;99.90;;;;;;5038383;28;20021;-69